sensor_id;sensor_type;location;lat;lon;timestamp;P1;durP1;ratioP1;P2;durP2;ratioP2
69417;SDS011;56610;48.872;2.400;2022-09-24T00:02:03;4.40;;;3.90;;
69417;SDS011;56610;48.872;2.400;2022-09-24T00:04:29;4.45;;;4.05;;
69417;SDS011;56610;48.872;2.400;2022-09-24T00:06:55;4.32;;;3.95;;
69417;SDS011;56610;48.872;2.400;2022-09-24T00:09:21;5.40;;;4.68;;
69417;SDS011;56610;48.872;2.400;2022-09-24T00:11:47;4.97;;;4.47;;
69417;SDS011;56610;48.872;2.400;2022-09-24T00:14:14;6.37;;;4.33;;
69417;SDS011;56610;48.872;2.400;2022-09-24T00:16:42;4.80;;;4.37;;
69417;SDS011;56610;48.872;2.400;2022-09-24T00:19:10;5.32;;;4.65;;
69417;SDS011;56610;48.872;2.400;2022-09-24T00:21:37;5.20;;;4.70;;
69417;SDS011;56610;48.872;2.400;2022-09-24T00:24:07;4.95;;;4.53;;
69417;SDS011;56610;48.872;2.400;2022-09-24T00:26:56;5.57;;;4.53;;
69417;SDS011;56610;48.872;2.400;2022-09-24T00:29:23;5.13;;;4.50;;
69417;SDS011;56610;48.872;2.400;2022-09-24T00:31:49;5.43;;;4.70;;
69417;SDS011;56610;48.872;2.400;2022-09-24T00:34:17;5.25;;;4.75;;
69417;SDS011;56610;48.872;2.400;2022-09-24T00:36:44;5.35;;;4.85;;
69417;SDS011;56610;48.872;2.400;2022-09-24T00:39:12;5.18;;;4.68;;
69417;SDS011;56610;48.872;2.400;2022-09-24T00:41:38;5.30;;;4.80;;
69417;SDS011;56610;48.872;2.400;2022-09-24T00:47:04;5.07;;;4.60;;
69417;SDS011;56610;48.872;2.400;2022-09-24T00:49:37;6.32;;;4.90;;
69417;SDS011;56610;48.872;2.400;2022-09-24T00:52:04;6.03;;;4.70;;
69417;SDS011;56610;48.872;2.400;2022-09-24T00:54:30;5.57;;;4.95;;
69417;SDS011;56610;48.872;2.400;2022-09-24T00:56:57;5.60;;;5.10;;
69417;SDS011;56610;48.872;2.400;2022-09-24T00:59:24;6.13;;;5.50;;
69417;SDS011;56610;48.872;2.400;2022-09-24T01:01:51;5.38;;;4.88;;
69417;SDS011;56610;48.872;2.400;2022-09-24T01:04:23;5.50;;;5.00;;
69417;SDS011;56610;48.872;2.400;2022-09-24T01:09:17;5.55;;;4.88;;
69417;SDS011;56610;48.872;2.400;2022-09-24T01:17:28;5.55;;;4.60;;
69417;SDS011;56610;48.872;2.400;2022-09-24T01:20:31;6.43;;;5.15;;
69417;SDS011;56610;48.872;2.400;2022-09-24T01:23:06;7.45;;;5.50;;
69417;SDS011;56610;48.872;2.400;2022-09-24T01:25:56;5.47;;;4.85;;
69417;SDS011;56610;48.872;2.400;2022-09-24T01:28:43;5.63;;;4.93;;
69417;SDS011;56610;48.872;2.400;2022-09-24T01:31:24;5.85;;;4.97;;
69417;SDS011;56610;48.872;2.400;2022-09-24T01:33:54;5.78;;;5.28;;
69417;SDS011;56610;48.872;2.400;2022-09-24T01:36:23;8.02;;;5.68;;
69417;SDS011;56610;48.872;2.400;2022-09-24T01:38:51;7.07;;;5.82;;
69417;SDS011;56610;48.872;2.400;2022-09-24T01:43:45;6.47;;;5.80;;
69417;SDS011;56610;48.872;2.400;2022-09-24T01:46:12;7.47;;;6.30;;
69417;SDS011;56610;48.872;2.400;2022-09-24T01:48:41;8.10;;;6.38;;
69417;SDS011;56610;48.872;2.400;2022-09-24T01:53:53;6.68;;;6.03;;
69417;SDS011;56610;48.872;2.400;2022-09-24T01:56:49;7.07;;;6.35;;
69417;SDS011;56610;48.872;2.400;2022-09-24T01:59:30;6.53;;;5.93;;
69417;SDS011;56610;48.872;2.400;2022-09-24T02:02:11;6.72;;;6.13;;
69417;SDS011;56610;48.872;2.400;2022-09-24T02:05:03;6.68;;;6.07;;
69417;SDS011;56610;48.872;2.400;2022-09-24T02:08:00;6.72;;;5.75;;
69417;SDS011;56610;48.872;2.400;2022-09-24T02:10:29;6.95;;;6.25;;
69417;SDS011;56610;48.872;2.400;2022-09-24T02:12:59;6.38;;;5.88;;
69417;SDS011;56610;48.872;2.400;2022-09-24T02:15:29;6.03;;;5.53;;
69417;SDS011;56610;48.872;2.400;2022-09-24T02:18:17;6.13;;;5.50;;
69417;SDS011;56610;48.872;2.400;2022-09-24T02:20:47;6.38;;;5.78;;
69417;SDS011;56610;48.872;2.400;2022-09-24T02:23:15;6.75;;;5.72;;
69417;SDS011;56610;48.872;2.400;2022-09-24T02:25:44;5.70;;;5.20;;
69417;SDS011;56610;48.872;2.400;2022-09-24T02:28:15;6.05;;;5.55;;
69417;SDS011;56610;48.872;2.400;2022-09-24T02:30:43;5.85;;;5.30;;
69417;SDS011;56610;48.872;2.400;2022-09-24T02:33:13;6.22;;;5.63;;
69417;SDS011;56610;48.872;2.400;2022-09-24T02:35:58;6.47;;;5.93;;
69417;SDS011;56610;48.872;2.400;2022-09-24T02:38:24;6.85;;;5.68;;
69417;SDS011;56610;48.872;2.400;2022-09-24T02:40:50;7.60;;;6.25;;
69417;SDS011;56610;48.872;2.400;2022-09-24T02:43:17;5.80;;;5.30;;
69417;SDS011;56610;48.872;2.400;2022-09-24T02:45:42;6.40;;;5.80;;
69417;SDS011;56610;48.872;2.400;2022-09-24T02:48:08;6.75;;;6.15;;
69417;SDS011;56610;48.872;2.400;2022-09-24T02:50:34;6.20;;;5.60;;
69417;SDS011;56610;48.872;2.400;2022-09-24T02:52:59;6.35;;;5.75;;
69417;SDS011;56610;48.872;2.400;2022-09-24T02:55:25;6.80;;;6.20;;
69417;SDS011;56610;48.872;2.400;2022-09-24T02:57:51;6.55;;;5.95;;
69417;SDS011;56610;48.872;2.400;2022-09-24T03:00:17;6.18;;;5.57;;
69417;SDS011;56610;48.872;2.400;2022-09-24T03:02:44;5.90;;;5.30;;
69417;SDS011;56610;48.872;2.400;2022-09-24T03:05:11;6.43;;;5.82;;
69417;SDS011;56610;48.872;2.400;2022-09-24T03:07:42;6.38;;;5.78;;
69417;SDS011;56610;48.872;2.400;2022-09-24T03:10:08;7.50;;;6.50;;
69417;SDS011;56610;48.872;2.400;2022-09-24T03:12:34;6.85;;;6.20;;
69417;SDS011;56610;48.872;2.400;2022-09-24T03:14:59;7.22;;;6.30;;
69417;SDS011;56610;48.872;2.400;2022-09-24T03:17:25;6.95;;;6.35;;
69417;SDS011;56610;48.872;2.400;2022-09-24T03:19:52;6.95;;;6.25;;
69417;SDS011;56610;48.872;2.400;2022-09-24T03:22:17;6.88;;;6.28;;
69417;SDS011;56610;48.872;2.400;2022-09-24T03:24:43;8.95;;;6.32;;
69417;SDS011;56610;48.872;2.400;2022-09-24T03:27:09;6.28;;;5.57;;
69417;SDS011;56610;48.872;2.400;2022-09-24T03:29:35;6.32;;;5.70;;
69417;SDS011;56610;48.872;2.400;2022-09-24T03:32:19;6.55;;;5.90;;
69417;SDS011;56610;48.872;2.400;2022-09-24T03:34:45;6.60;;;5.97;;
69417;SDS011;56610;48.872;2.400;2022-09-24T03:37:11;6.38;;;5.78;;
69417;SDS011;56610;48.872;2.400;2022-09-24T03:39:37;6.93;;;6.32;;
69417;SDS011;56610;48.872;2.400;2022-09-24T03:42:03;7.93;;;6.47;;
69417;SDS011;56610;48.872;2.400;2022-09-24T03:44:28;6.30;;;5.80;;
69417;SDS011;56610;48.872;2.400;2022-09-24T03:46:54;6.47;;;5.88;;
69417;SDS011;56610;48.872;2.400;2022-09-24T03:49:20;6.97;;;6.28;;
69417;SDS011;56610;48.872;2.400;2022-09-24T03:51:47;7.38;;;6.68;;
69417;SDS011;56610;48.872;2.400;2022-09-24T03:54:14;6.38;;;5.68;;
69417;SDS011;56610;48.872;2.400;2022-09-24T03:56:40;6.30;;;5.70;;
69417;SDS011;56610;48.872;2.400;2022-09-24T03:59:07;6.68;;;5.65;;
69417;SDS011;56610;48.872;2.400;2022-09-24T04:01:34;7.10;;;6.40;;
69417;SDS011;56610;48.872;2.400;2022-09-24T04:04:01;6.40;;;5.82;;
69417;SDS011;56610;48.872;2.400;2022-09-24T04:06:27;7.10;;;6.50;;
69417;SDS011;56610;48.872;2.400;2022-09-24T04:08:53;7.30;;;6.65;;
69417;SDS011;56610;48.872;2.400;2022-09-24T04:11:19;6.18;;;5.57;;
69417;SDS011;56610;48.872;2.400;2022-09-24T04:13:45;6.45;;;5.88;;
69417;SDS011;56610;48.872;2.400;2022-09-24T04:16:11;7.25;;;6.55;;
69417;SDS011;56610;48.872;2.400;2022-09-24T04:18:36;6.30;;;5.70;;
69417;SDS011;56610;48.872;2.400;2022-09-24T04:21:03;6.60;;;5.50;;
69417;SDS011;56610;48.872;2.400;2022-09-24T04:23:29;6.30;;;5.70;;
69417;SDS011;56610;48.872;2.400;2022-09-24T04:25:58;5.40;;;4.80;;
69417;SDS011;56610;48.872;2.400;2022-09-24T04:28:29;6.00;;;5.38;;
69417;SDS011;56610;48.872;2.400;2022-09-24T04:30:55;6.75;;;5.32;;
69417;SDS011;56610;48.872;2.400;2022-09-24T04:33:21;5.47;;;5.00;;
69417;SDS011;56610;48.872;2.400;2022-09-24T04:35:47;5.95;;;5.25;;
69417;SDS011;56610;48.872;2.400;2022-09-24T04:38:12;5.25;;;4.75;;
69417;SDS011;56610;48.872;2.400;2022-09-24T04:40:38;5.53;;;4.97;;
69417;SDS011;56610;48.872;2.400;2022-09-24T04:43:04;5.60;;;5.07;;
69417;SDS011;56610;48.872;2.400;2022-09-24T04:45:30;5.60;;;5.10;;
69417;SDS011;56610;48.872;2.400;2022-09-24T04:47:56;5.95;;;5.35;;
69417;SDS011;56610;48.872;2.400;2022-09-24T04:50:25;5.88;;;5.38;;
69417;SDS011;56610;48.872;2.400;2022-09-24T04:52:53;5.32;;;4.82;;
69417;SDS011;56610;48.872;2.400;2022-09-24T04:55:20;6.05;;;5.47;;
69417;SDS011;56610;48.872;2.400;2022-09-24T04:57:46;6.00;;;5.50;;
69417;SDS011;56610;48.872;2.400;2022-09-24T05:00:13;5.60;;;4.97;;
69417;SDS011;56610;48.872;2.400;2022-09-24T05:02:41;5.00;;;4.50;;
69417;SDS011;56610;48.872;2.400;2022-09-24T05:05:07;6.03;;;5.43;;
69417;SDS011;56610;48.872;2.400;2022-09-24T05:07:35;6.35;;;5.75;;
69417;SDS011;56610;48.872;2.400;2022-09-24T05:10:00;6.13;;;5.53;;
69417;SDS011;56610;48.872;2.400;2022-09-24T05:12:26;6.35;;;5.65;;
69417;SDS011;56610;48.872;2.400;2022-09-24T05:14:52;6.82;;;5.78;;
69417;SDS011;56610;48.872;2.400;2022-09-24T05:17:17;6.22;;;5.63;;
69417;SDS011;56610;48.872;2.400;2022-09-24T05:19:43;5.68;;;5.18;;
69417;SDS011;56610;48.872;2.400;2022-09-24T05:22:09;5.45;;;5.03;;
69417;SDS011;56610;48.872;2.400;2022-09-24T05:24:35;6.03;;;5.25;;
69417;SDS011;56610;48.872;2.400;2022-09-24T05:27:00;5.82;;;5.32;;
69417;SDS011;56610;48.872;2.400;2022-09-24T05:29:36;6.25;;;5.60;;
69417;SDS011;56610;48.872;2.400;2022-09-24T05:32:07;6.40;;;5.80;;
69417;SDS011;56610;48.872;2.400;2022-09-24T05:34:34;6.00;;;5.40;;
69417;SDS011;56610;48.872;2.400;2022-09-24T05:37:00;5.80;;;5.30;;
69417;SDS011;56610;48.872;2.400;2022-09-24T05:39:26;6.03;;;5.53;;
69417;SDS011;56610;48.872;2.400;2022-09-24T05:41:52;5.50;;;5.05;;
69417;SDS011;56610;48.872;2.400;2022-09-24T05:44:19;6.07;;;5.47;;
69417;SDS011;56610;48.872;2.400;2022-09-24T05:46:45;5.35;;;4.85;;
69417;SDS011;56610;48.872;2.400;2022-09-24T05:49:12;6.15;;;5.47;;
69417;SDS011;56610;48.872;2.400;2022-09-24T05:51:37;6.18;;;5.38;;
69417;SDS011;56610;48.872;2.400;2022-09-24T05:54:03;6.15;;;5.55;;
69417;SDS011;56610;48.872;2.400;2022-09-24T05:56:29;7.30;;;5.80;;
69417;SDS011;56610;48.872;2.400;2022-09-24T05:58:54;5.95;;;5.43;;
69417;SDS011;56610;48.872;2.400;2022-09-24T06:01:20;5.57;;;5.05;;
69417;SDS011;56610;48.872;2.400;2022-09-24T06:03:45;6.57;;;5.97;;
69417;SDS011;56610;48.872;2.400;2022-09-24T06:06:11;8.75;;;7.95;;
69417;SDS011;56610;48.872;2.400;2022-09-24T06:08:37;6.03;;;5.53;;
69417;SDS011;56610;48.872;2.400;2022-09-24T06:11:04;6.35;;;5.82;;
69417;SDS011;56610;48.872;2.400;2022-09-24T06:13:32;6.07;;;5.50;;
69417;SDS011;56610;48.872;2.400;2022-09-24T06:15:59;6.93;;;6.22;;
69417;SDS011;56610;48.872;2.400;2022-09-24T06:18:26;7.07;;;5.95;;
69417;SDS011;56610;48.872;2.400;2022-09-24T06:20:51;6.25;;;5.75;;
69417;SDS011;56610;48.872;2.400;2022-09-24T06:23:17;6.30;;;5.80;;
69417;SDS011;56610;48.872;2.400;2022-09-24T06:25:42;6.70;;;6.10;;
69417;SDS011;56610;48.872;2.400;2022-09-24T06:28:12;6.97;;;6.28;;
69417;SDS011;56610;48.872;2.400;2022-09-24T06:30:38;5.88;;;5.38;;
69417;SDS011;56610;48.872;2.400;2022-09-24T06:33:06;6.63;;;6.00;;
69417;SDS011;56610;48.872;2.400;2022-09-24T06:35:34;6.80;;;6.20;;
69417;SDS011;56610;48.872;2.400;2022-09-24T06:38:00;6.45;;;5.85;;
69417;SDS011;56610;48.872;2.400;2022-09-24T06:40:30;8.27;;;6.80;;
69417;SDS011;56610;48.872;2.400;2022-09-24T06:42:56;7.60;;;6.93;;
69417;SDS011;56610;48.872;2.400;2022-09-24T06:45:23;6.75;;;6.15;;
69417;SDS011;56610;48.872;2.400;2022-09-24T06:47:51;7.85;;;6.80;;
69417;SDS011;56610;48.872;2.400;2022-09-24T06:50:18;6.57;;;5.97;;
69417;SDS011;56610;48.872;2.400;2022-09-24T06:52:43;7.50;;;6.80;;
69417;SDS011;56610;48.872;2.400;2022-09-24T06:55:09;7.63;;;6.88;;
69417;SDS011;56610;48.872;2.400;2022-09-24T06:57:34;7.25;;;6.47;;
69417;SDS011;56610;48.872;2.400;2022-09-24T07:00:00;7.20;;;6.57;;
69417;SDS011;56610;48.872;2.400;2022-09-24T07:02:26;7.40;;;6.70;;
69417;SDS011;56610;48.872;2.400;2022-09-24T07:04:52;7.25;;;6.55;;
69417;SDS011;56610;48.872;2.400;2022-09-24T07:07:18;7.18;;;6.47;;
69417;SDS011;56610;48.872;2.400;2022-09-24T07:10:03;7.47;;;6.78;;
69417;SDS011;56610;48.872;2.400;2022-09-24T07:12:31;6.45;;;5.80;;
69417;SDS011;56610;48.872;2.400;2022-09-24T07:14:57;9.18;;;6.68;;
69417;SDS011;56610;48.872;2.400;2022-09-24T07:17:24;7.18;;;5.88;;
69417;SDS011;56610;48.872;2.400;2022-09-24T07:19:50;6.68;;;6.07;;
69417;SDS011;56610;48.872;2.400;2022-09-24T07:22:16;6.85;;;6.22;;
69417;SDS011;56610;48.872;2.400;2022-09-24T07:24:42;8.52;;;5.82;;
69417;SDS011;56610;48.872;2.400;2022-09-24T07:27:08;6.40;;;5.80;;
69417;SDS011;56610;48.872;2.400;2022-09-24T07:29:34;7.35;;;6.53;;
69417;SDS011;56610;48.872;2.400;2022-09-24T07:32:01;7.03;;;6.15;;
69417;SDS011;56610;48.872;2.400;2022-09-24T07:34:27;6.05;;;5.53;;
69417;SDS011;56610;48.872;2.400;2022-09-24T07:36:53;6.35;;;5.75;;
69417;SDS011;56610;48.872;2.400;2022-09-24T07:39:20;6.72;;;5.32;;
69417;SDS011;56610;48.872;2.400;2022-09-24T07:41:46;5.93;;;5.38;;
69417;SDS011;56610;48.872;2.400;2022-09-24T07:44:11;6.45;;;5.30;;
69417;SDS011;56610;48.872;2.400;2022-09-24T07:46:38;5.60;;;5.20;;
69417;SDS011;56610;48.872;2.400;2022-09-24T07:49:03;6.45;;;5.85;;
69417;SDS011;56610;48.872;2.400;2022-09-24T07:51:29;5.70;;;5.20;;
69417;SDS011;56610;48.872;2.400;2022-09-24T07:53:55;6.35;;;5.75;;
69417;SDS011;56610;48.872;2.400;2022-09-24T07:56:21;5.97;;;5.38;;
69417;SDS011;56610;48.872;2.400;2022-09-24T07:58:48;5.45;;;4.90;;
69417;SDS011;56610;48.872;2.400;2022-09-24T08:01:14;7.15;;;5.57;;
69417;SDS011;56610;48.872;2.400;2022-09-24T08:03:41;6.47;;;5.78;;
69417;SDS011;56610;48.872;2.400;2022-09-24T08:06:07;6.35;;;5.75;;
69417;SDS011;56610;48.872;2.400;2022-09-24T08:08:33;7.45;;;6.75;;
69417;SDS011;56610;48.872;2.400;2022-09-24T08:11:03;7.07;;;6.38;;
69417;SDS011;56610;48.872;2.400;2022-09-24T08:13:32;6.50;;;5.90;;
69417;SDS011;56610;48.872;2.400;2022-09-24T08:15:58;6.40;;;5.80;;
69417;SDS011;56610;48.872;2.400;2022-09-24T08:18:25;6.35;;;5.75;;
69417;SDS011;56610;48.872;2.400;2022-09-24T08:20:52;6.63;;;5.78;;
69417;SDS011;56610;48.872;2.400;2022-09-24T08:23:18;6.07;;;5.53;;
69417;SDS011;56610;48.872;2.400;2022-09-24T08:25:44;6.47;;;5.88;;
69417;SDS011;56610;48.872;2.400;2022-09-24T08:28:10;6.93;;;6.03;;
69417;SDS011;56610;48.872;2.400;2022-09-24T08:30:37;6.03;;;5.43;;
69417;SDS011;56610;48.872;2.400;2022-09-24T08:33:05;8.27;;;7.47;;
69417;SDS011;56610;48.872;2.400;2022-09-24T08:35:31;8.18;;;6.57;;
69417;SDS011;56610;48.872;2.400;2022-09-24T08:37:58;6.47;;;5.87;;
69417;SDS011;56610;48.872;2.400;2022-09-24T08:40:25;7.90;;;6.50;;
69417;SDS011;56610;48.872;2.400;2022-09-24T08:43:05;5.72;;;5.22;;
69417;SDS011;56610;48.872;2.400;2022-09-24T08:45:48;6.82;;;5.88;;
69417;SDS011;56610;48.872;2.400;2022-09-24T08:48:39;7.10;;;6.40;;
69417;SDS011;56610;48.872;2.400;2022-09-24T08:51:13;7.28;;;6.57;;
69417;SDS011;56610;48.872;2.400;2022-09-24T08:56:29;6.88;;;6.18;;
69417;SDS011;56610;48.872;2.400;2022-09-24T08:58:59;6.72;;;6.10;;
69417;SDS011;56610;48.872;2.400;2022-09-24T09:04:19;6.72;;;6.13;;
69417;SDS011;56610;48.872;2.400;2022-09-24T09:09:24;6.72;;;6.13;;
69417;SDS011;56610;48.872;2.400;2022-09-24T09:11:58;7.03;;;6.43;;
69417;SDS011;56610;48.872;2.400;2022-09-24T09:14:38;7.00;;;6.40;;
69417;SDS011;56610;48.872;2.400;2022-09-24T09:22:50;6.45;;;5.85;;
69417;SDS011;56610;48.872;2.400;2022-09-24T09:25:21;6.88;;;6.30;;
69417;SDS011;56610;48.872;2.400;2022-09-24T09:27:50;6.50;;;5.90;;
69417;SDS011;56610;48.872;2.400;2022-09-24T09:30:24;7.07;;;6.43;;
69417;SDS011;56610;48.872;2.400;2022-09-24T09:35:34;6.72;;;6.13;;
69417;SDS011;56610;48.872;2.400;2022-09-24T09:38:15;8.50;;;7.70;;
69417;SDS011;56610;48.872;2.400;2022-09-24T09:41:12;7.70;;;7.00;;
69417;SDS011;56610;48.872;2.400;2022-09-24T09:43:47;10.60;;;9.50;;
69417;SDS011;56610;48.872;2.400;2022-09-24T09:48:50;10.00;;;9.10;;
69417;SDS011;56610;48.872;2.400;2022-09-24T09:51:21;9.65;;;8.82;;
69417;SDS011;56610;48.872;2.400;2022-09-24T09:53:56;8.32;;;7.63;;
69417;SDS011;56610;48.872;2.400;2022-09-24T09:56:35;8.30;;;7.60;;
69417;SDS011;56610;48.872;2.400;2022-09-24T10:01:35;8.50;;;7.50;;
69417;SDS011;56610;48.872;2.400;2022-09-24T10:07:12;9.77;;;8.77;;
69417;SDS011;56610;48.872;2.400;2022-09-24T10:09:40;10.45;;;9.55;;
69417;SDS011;56610;48.872;2.400;2022-09-24T10:14:54;12.68;;;9.85;;
69417;SDS011;56610;48.872;2.400;2022-09-24T10:17:21;9.35;;;8.45;;
69417;SDS011;56610;48.872;2.400;2022-09-24T10:19:51;9.05;;;8.25;;
69417;SDS011;56610;48.872;2.400;2022-09-24T10:22:22;9.63;;;8.82;;
69417;SDS011;56610;48.872;2.400;2022-09-24T10:24:49;10.13;;;9.13;;
69417;SDS011;56610;48.872;2.400;2022-09-24T10:27:21;9.60;;;8.68;;
69417;SDS011;56610;48.872;2.400;2022-09-24T10:29:59;10.70;;;9.70;;
69417;SDS011;56610;48.872;2.400;2022-09-24T10:32:57;10.63;;;9.52;;
69417;SDS011;56610;48.872;2.400;2022-09-24T10:35:26;9.73;;;8.93;;
69417;SDS011;56610;48.872;2.400;2022-09-24T10:38:00;10.63;;;9.60;;
69417;SDS011;56610;48.872;2.400;2022-09-24T10:40:30;9.77;;;8.88;;
69417;SDS011;56610;48.872;2.400;2022-09-24T10:43:03;9.75;;;8.85;;
69417;SDS011;56610;48.872;2.400;2022-09-24T10:48:21;9.38;;;8.48;;
69417;SDS011;56610;48.872;2.400;2022-09-24T10:51:02;9.10;;;8.30;;
69417;SDS011;56610;48.872;2.400;2022-09-24T10:56:32;8.75;;;7.93;;
69417;SDS011;56610;48.872;2.400;2022-09-24T11:01:41;8.73;;;7.82;;
69417;SDS011;56610;48.872;2.400;2022-09-24T11:04:29;9.75;;;8.85;;
69417;SDS011;56610;48.872;2.400;2022-09-24T11:12:51;9.95;;;8.98;;
69417;SDS011;56610;48.872;2.400;2022-09-24T11:30:11;10.80;;;9.40;;
69417;SDS011;56610;48.872;2.400;2022-09-24T11:32:56;10.60;;;9.52;;
69417;SDS011;56610;48.872;2.400;2022-09-24T11:38:47;9.25;;;8.35;;
69417;SDS011;56610;48.872;2.400;2022-09-24T11:41:06;9.50;;;8.70;;
69417;SDS011;56610;48.872;2.400;2022-09-24T11:49:16;9.13;;;8.23;;
69417;SDS011;56610;48.872;2.400;2022-09-24T11:52:14;10.35;;;9.00;;
69417;SDS011;56610;48.872;2.400;2022-09-24T11:57:48;9.47;;;8.57;;
69417;SDS011;56610;48.872;2.400;2022-09-24T12:00:32;9.40;;;8.30;;
69417;SDS011;56610;48.872;2.400;2022-09-24T12:03:06;11.65;;;8.65;;
69417;SDS011;56610;48.872;2.400;2022-09-24T12:05:56;10.05;;;9.05;;
69417;SDS011;56610;48.872;2.400;2022-09-24T12:08:33;9.80;;;8.90;;
69417;SDS011;56610;48.872;2.400;2022-09-24T12:14:18;8.40;;;7.60;;
69417;SDS011;56610;48.872;2.400;2022-09-24T12:16:48;8.98;;;8.07;;
69417;SDS011;56610;48.872;2.400;2022-09-24T12:19:29;9.23;;;8.32;;
69417;SDS011;56610;48.872;2.400;2022-09-24T12:22:00;8.73;;;7.85;;
69417;SDS011;56610;48.872;2.400;2022-09-24T12:27:24;8.48;;;7.68;;
69417;SDS011;56610;48.872;2.400;2022-09-24T12:35:25;9.57;;;8.40;;
69417;SDS011;56610;48.872;2.400;2022-09-24T12:40:48;9.23;;;8.43;;
69417;SDS011;56610;48.872;2.400;2022-09-24T12:46:13;9.85;;;8.85;;
69417;SDS011;56610;48.872;2.400;2022-09-24T12:48:42;8.65;;;7.85;;
69417;SDS011;56610;48.872;2.400;2022-09-24T12:51:09;9.63;;;8.82;;
69417;SDS011;56610;48.872;2.400;2022-09-24T12:53:37;9.65;;;8.73;;
69417;SDS011;56610;48.872;2.400;2022-09-24T12:56:05;9.25;;;8.35;;
69417;SDS011;56610;48.872;2.400;2022-09-24T12:58:43;9.63;;;8.70;;
69417;SDS011;56610;48.872;2.400;2022-09-24T13:04:00;8.38;;;7.53;;
69417;SDS011;56610;48.872;2.400;2022-09-24T13:06:31;8.70;;;7.90;;
69417;SDS011;56610;48.872;2.400;2022-09-24T13:12:05;8.65;;;7.75;;
69417;SDS011;56610;48.872;2.400;2022-09-24T13:14:57;10.90;;;8.13;;
69417;SDS011;56610;48.872;2.400;2022-09-24T13:17:32;6.85;;;6.25;;
69417;SDS011;56610;48.872;2.400;2022-09-24T13:20:02;7.72;;;6.90;;
69417;SDS011;56610;48.872;2.400;2022-09-24T13:22:34;7.10;;;6.40;;
69417;SDS011;56610;48.872;2.400;2022-09-24T13:25:20;7.03;;;6.40;;
69417;SDS011;56610;48.872;2.400;2022-09-24T13:27:57;8.38;;;7.45;;
69417;SDS011;56610;48.872;2.400;2022-09-24T13:30:30;8.65;;;7.70;;
69417;SDS011;56610;48.872;2.400;2022-09-24T13:38:57;7.22;;;6.43;;
69417;SDS011;56610;48.872;2.400;2022-09-24T13:42:03;6.72;;;6.10;;
69417;SDS011;56610;48.872;2.400;2022-09-24T13:44:48;7.68;;;6.65;;
69417;SDS011;56610;48.872;2.400;2022-09-24T13:50:06;8.48;;;7.78;;
69417;SDS011;56610;48.872;2.400;2022-09-24T13:52:46;8.10;;;7.35;;
69417;SDS011;56610;48.872;2.400;2022-09-24T13:55:18;9.30;;;7.32;;
69417;SDS011;56610;48.872;2.400;2022-09-24T13:57:54;8.50;;;7.70;;
69417;SDS011;56610;48.872;2.400;2022-09-24T14:00:21;8.68;;;7.88;;
69417;SDS011;56610;48.872;2.400;2022-09-24T14:05:36;9.13;;;8.15;;
69417;SDS011;56610;48.872;2.400;2022-09-24T14:08:14;9.43;;;8.40;;
69417;SDS011;56610;48.872;2.400;2022-09-24T14:10:42;8.25;;;7.45;;
69417;SDS011;56610;48.872;2.400;2022-09-24T14:15:55;6.97;;;6.38;;
69417;SDS011;56610;48.872;2.400;2022-09-24T14:18:34;7.43;;;6.65;;
69417;SDS011;56610;48.872;2.400;2022-09-24T14:21:22;6.78;;;6.05;;
69417;SDS011;56610;48.872;2.400;2022-09-24T14:23:52;7.47;;;6.70;;
69417;SDS011;56610;48.872;2.400;2022-09-24T14:29:25;5.90;;;5.30;;
69417;SDS011;56610;48.872;2.400;2022-09-24T14:31:59;6.72;;;5.22;;
69417;SDS011;56610;48.872;2.400;2022-09-24T14:34:40;6.97;;;6.10;;
69417;SDS011;56610;48.872;2.400;2022-09-24T14:37:21;7.28;;;5.90;;
69417;SDS011;56610;48.872;2.400;2022-09-24T14:39:55;5.70;;;5.10;;
69417;SDS011;56610;48.872;2.400;2022-09-24T14:45:04;6.32;;;5.28;;
69417;SDS011;56610;48.872;2.400;2022-09-24T14:47:33;5.70;;;5.10;;
69417;SDS011;56610;48.872;2.400;2022-09-24T14:50:00;7.25;;;5.50;;
69417;SDS011;56610;48.872;2.400;2022-09-24T14:52:34;6.25;;;5.65;;
69417;SDS011;56610;48.872;2.400;2022-09-24T14:57:43;7.18;;;5.50;;
69417;SDS011;56610;48.872;2.400;2022-09-24T15:06:03;6.30;;;5.70;;
69417;SDS011;56610;48.872;2.400;2022-09-24T15:08:38;5.82;;;5.22;;
69417;SDS011;56610;48.872;2.400;2022-09-24T15:11:05;6.72;;;5.93;;
69417;SDS011;56610;48.872;2.400;2022-09-24T15:13:34;6.57;;;5.72;;
69417;SDS011;56610;48.872;2.400;2022-09-24T15:18:28;6.40;;;5.80;;
69417;SDS011;56610;48.872;2.400;2022-09-24T15:20:54;6.10;;;5.50;;
69417;SDS011;56610;48.872;2.400;2022-09-24T15:23:22;5.93;;;5.32;;
69417;SDS011;56610;48.872;2.400;2022-09-24T15:25:48;6.38;;;5.75;;
69417;SDS011;56610;48.872;2.400;2022-09-24T15:28:14;5.95;;;5.45;;
69417;SDS011;56610;48.872;2.400;2022-09-24T15:30:39;6.57;;;5.88;;
69417;SDS011;56610;48.872;2.400;2022-09-24T15:33:09;6.30;;;5.70;;
69417;SDS011;56610;48.872;2.400;2022-09-24T15:35:36;8.70;;;6.57;;
69417;SDS011;56610;48.872;2.400;2022-09-24T15:38:02;6.75;;;5.85;;
69417;SDS011;56610;48.872;2.400;2022-09-24T15:40:28;6.60;;;5.53;;
69417;SDS011;56610;48.872;2.400;2022-09-24T15:42:57;6.70;;;5.97;;
69417;SDS011;56610;48.872;2.400;2022-09-24T15:45:24;6.40;;;5.80;;
69417;SDS011;56610;48.872;2.400;2022-09-24T15:47:52;6.20;;;5.70;;
69417;SDS011;56610;48.872;2.400;2022-09-24T15:50:18;7.18;;;6.03;;
69417;SDS011;56610;48.872;2.400;2022-09-24T15:55:22;7.18;;;6.18;;
69417;SDS011;56610;48.872;2.400;2022-09-24T15:57:48;6.78;;;6.10;;
69417;SDS011;56610;48.872;2.400;2022-09-24T16:00:17;8.35;;;6.30;;
69417;SDS011;56610;48.872;2.400;2022-09-24T16:02:46;6.95;;;6.25;;
69417;SDS011;56610;48.872;2.400;2022-09-24T16:05:16;6.60;;;6.00;;
69417;SDS011;56610;48.872;2.400;2022-09-24T16:07:42;7.10;;;6.40;;
69417;SDS011;56610;48.872;2.400;2022-09-24T16:10:08;10.95;;;7.43;;
69417;SDS011;56610;48.872;2.400;2022-09-24T16:12:35;6.35;;;5.80;;
69417;SDS011;56610;48.872;2.400;2022-09-24T16:15:01;7.13;;;5.70;;
69417;SDS011;56610;48.872;2.400;2022-09-24T16:17:26;7.50;;;6.70;;
69417;SDS011;56610;48.872;2.400;2022-09-24T16:19:53;6.95;;;6.25;;
69417;SDS011;56610;48.872;2.400;2022-09-24T16:22:19;6.43;;;5.93;;
69417;SDS011;56610;48.872;2.400;2022-09-24T16:24:44;8.77;;;7.57;;
69417;SDS011;56610;48.872;2.400;2022-09-24T16:27:10;8.45;;;6.43;;
69417;SDS011;56610;48.872;2.400;2022-09-24T16:29:36;6.95;;;6.35;;
69417;SDS011;56610;48.872;2.400;2022-09-24T16:32:01;7.68;;;6.43;;
69417;SDS011;56610;48.872;2.400;2022-09-24T16:34:27;7.30;;;6.13;;
69417;SDS011;56610;48.872;2.400;2022-09-24T16:36:53;6.30;;;5.70;;
69417;SDS011;56610;48.872;2.400;2022-09-24T16:39:19;6.55;;;5.88;;
69417;SDS011;56610;48.872;2.400;2022-09-24T16:41:48;6.10;;;5.47;;
69417;SDS011;56610;48.872;2.400;2022-09-24T16:44:15;7.28;;;5.57;;
69417;SDS011;56610;48.872;2.400;2022-09-24T16:46:41;6.55;;;5.85;;
69417;SDS011;56610;48.872;2.400;2022-09-24T16:49:08;5.82;;;5.22;;
69417;SDS011;56610;48.872;2.400;2022-09-24T16:51:34;5.90;;;5.30;;
69417;SDS011;56610;48.872;2.400;2022-09-24T16:53:59;6.13;;;5.47;;
69417;SDS011;56610;48.872;2.400;2022-09-24T16:56:25;5.55;;;4.78;;
69417;SDS011;56610;48.872;2.400;2022-09-24T16:58:51;7.18;;;5.10;;
69417;SDS011;56610;48.872;2.400;2022-09-24T17:01:18;7.18;;;4.75;;
69417;SDS011;56610;48.872;2.400;2022-09-24T17:06:25;5.88;;;4.50;;
69417;SDS011;56610;48.872;2.400;2022-09-24T17:08:53;5.78;;;4.95;;
69417;SDS011;56610;48.872;2.400;2022-09-24T17:11:38;5.30;;;4.38;;
69417;SDS011;56610;48.872;2.400;2022-09-24T17:14:04;5.32;;;4.82;;
69417;SDS011;56610;48.872;2.400;2022-09-24T17:16:31;5.18;;;4.60;;
69417;SDS011;56610;48.872;2.400;2022-09-24T17:18:57;4.57;;;4.15;;
69417;SDS011;56610;48.872;2.400;2022-09-24T17:21:24;5.40;;;4.90;;
69417;SDS011;56610;48.872;2.400;2022-09-24T17:23:50;4.43;;;2.67;;
69417;SDS011;56610;48.872;2.400;2022-09-24T17:26:17;2.40;;;2.13;;
69417;SDS011;56610;48.872;2.400;2022-09-24T17:28:44;2.20;;;1.70;;